Time;durP1;ratioP1;P1;durP2;ratioP2;P2;SDS_P1;SDS_P2;PMS_P1;PMS_P2;Temp;Humidity;BMP_temperature;BMP_pressure;BME280_temperature;BME280_humidity;BME280_pressure;Samples;Min_cycle;Max_cycle;Signal;HPM_P1;HPM_P2
2023/03/01 00:01:18;;;;;;;1.10;1.10;;;;;;;-7.19;61.95;98432.22;4785821;30;20051;-83
2023/03/01 00:03:45;;;;;;;0.70;0.70;;;;;;;-7.20;61.93;98423.53;4785334;30;20051;-81
2023/03/01 00:06:12;;;;;;;0.80;0.80;;;;;;;-7.20;61.81;98417.47;4785504;30;20146;-82
2023/03/01 00:08:40;;;;;;;0.80;0.80;;;;;;;-7.36;62.22;98425.97;4769017;30;20477;-83
2023/03/01 00:11:12;;;;;;;0.90;0.90;;;;;;;-7.41;62.72;98421.16;4785843;30;20051;-82
2023/03/01 00:13:41;;;;;;;0.98;0.98;;;;;;;-7.32;62.51;98421.25;4785232;30;20180;-82
2023/03/01 00:16:11;;;;;;;0.95;0.95;;;;;;;-7.35;62.65;98413.69;4769133;30;20086;-82
2023/03/01 00:18:39;;;;;;;1.00;1.00;;;;;;;-7.34;62.56;98424.06;4782601;30;20507;-83
2023/03/01 00:21:06;;;;;;;1.00;1.00;;;;;;;-7.42;62.83;98419.53;4751564;30;20147;-83
2023/03/01 00:23:34;;;;;;;0.82;0.82;;;;;;;-7.43;62.90;98425.72;4767275;30;20060;-82
2023/03/01 00:26:05;;;;;;;1.08;1.08;;;;;;;-7.48;63.30;98417.47;4767244;30;20051;-82
2023/03/01 00:28:32;;;;;;;1.20;1.20;;;;;;;-7.55;63.50;98415.56;4767230;30;20472;-82
2023/03/01 00:31:07;;;;;;;1.10;1.10;;;;;;;-7.72;63.84;98401.41;4751717;30;20517;-82
2023/03/01 00:33:35;;;;;;;0.95;0.95;;;;;;;-7.64;63.88;98414.66;4751415;30;20047;-83
2023/03/01 00:36:03;;;;;;;1.02;1.02;;;;;;;-7.56;63.61;98417.38;4767276;30;20105;-82
2023/03/01 00:38:30;;;;;;;0.93;0.93;;;;;;;-7.60;63.59;98402.88;4736759;30;20098;-83
2023/03/01 00:41:12;;;;;;;0.70;0.70;;;;;;;-7.66;63.90;98414.78;4767439;30;20121;-82
2023/03/01 00:43:40;;;;;;;1.10;1.10;;;;;;;-7.69;63.90;98416.88;4767382;30;20142;-83
2023/03/01 00:46:09;;;;;;;0.90;0.90;;;;;;;-7.69;64.02;98419.50;4767655;30;20055;-82
2023/03/01 00:48:37;;;;;;;1.10;1.10;;;;;;;-7.73;64.34;98421.56;4767164;30;20079;-83
2023/03/01 00:51:25;;;;;;;1.00;1.00;;;;;;;-7.76;64.35;98406.13;4767235;30;20056;-82
2023/03/01 00:53:54;;;;;;;1.23;1.20;;;;;;;-7.76;64.41;98405.31;4750886;30;20048;-82
2023/03/01 00:56:21;;;;;;;0.95;0.95;;;;;;;-7.74;64.29;98398.13;4751086;30;20064;-82
2023/03/01 00:58:49;;;;;;;0.90;0.90;;;;;;;-7.82;64.44;98408.47;4753063;30;20063;-82
2023/03/01 01:01:21;;;;;;;1.00;1.00;;;;;;;-7.93;64.98;98402.44;4768935;30;20055;-82
2023/03/01 01:03:51;;;;;;;0.90;0.90;;;;;;;-7.93;65.01;98406.88;4784766;30;20047;-81
2023/03/01 01:06:21;;;;;;;0.90;0.90;;;;;;;-7.95;65.24;98412.25;4784668;30;20087;-82
2023/03/01 01:08:48;;;;;;;1.00;1.00;;;;;;;-7.97;65.19;98413.38;4768752;30;20104;-82
2023/03/01 01:11:16;;;;;;;1.00;1.00;;;;;;;-8.00;65.45;98413.63;4768762;30;20059;-83
2023/03/01 01:13:45;;;;;;;1.27;1.20;;;;;;;-7.91;65.25;98394.47;4768728;30;20090;-83
2023/03/01 01:16:13;;;;;;;1.00;1.00;;;;;;;-7.86;64.95;98408.78;4768574;30;20051;-82
2023/03/01 01:18:41;;;;;;;1.02;1.02;;;;;;;-7.89;64.92;98401.19;4784391;30;20142;-82
2023/03/01 01:21:13;;;;;;;1.30;1.20;;;;;;;-7.83;64.65;98396.38;4784855;30;20063;-82
2023/03/01 01:23:41;;;;;;;1.27;1.17;;;;;;;-7.89;64.84;98403.00;4768690;30;20058;-83
2023/03/01 01:26:12;;;;;;;1.00;1.00;;;;;;;-8.07;65.22;98400.28;4784600;30;20057;-83
2023/03/01 01:28:39;;;;;;;1.00;1.00;;;;;;;-8.11;65.73;98404.16;4786191;29;20119;-82
2023/03/01 01:31:07;;;;;;;0.80;0.80;;;;;;;-8.17;65.90;98399.50;4787935;30;20052;-82
2023/03/01 01:33:35;;;;;;;0.90;0.90;;;;;;;-8.19;66.39;98391.75;4787647;30;20150;-82
2023/03/01 01:36:03;;;;;;;1.40;1.30;;;;;;;-8.18;66.64;98401.25;4787862;30;20047;-81
2023/03/01 01:38:30;;;;;;;1.30;1.20;;;;;;;-8.16;66.25;98396.72;4787903;30;20112;-81
2023/03/01 01:40:58;;;;;;;1.30;1.20;;;;;;;-8.17;66.91;98396.88;4787817;30;20420;-81
2023/03/01 01:43:29;;;;;;;0.98;0.98;;;;;;;-8.16;67.20;98395.88;4786553;29;20051;-82
2023/03/01 01:46:07;;;;;;;1.00;1.00;;;;;;;-8.26;67.08;98400.31;4771544;30;20066;-83
2023/03/01 01:48:41;;;;;;;1.10;1.10;;;;;;;-8.29;67.73;98412.72;4771545;30;20077;-81
2023/03/01 01:51:13;;;;;;;1.10;1.10;;;;;;;-8.27;67.64;98414.38;4772017;30;20062;-81
2023/03/01 01:53:43;;;;;;;1.13;1.13;;;;;;;-8.30;67.87;98403.22;4757077;30;20469;-82
2023/03/01 01:56:11;;;;;;;1.00;1.00;;;;;;;-8.20;67.88;98412.84;4787598;30;20588;-82
2023/03/01 01:58:40;;;;;;;1.00;1.00;;;;;;;-8.20;68.20;98404.97;4771221;30;20059;-82
2023/03/01 02:01:07;;;;;;;0.98;0.98;;;;;;;-8.26;68.24;98400.31;4787763;30;20043;-83
2023/03/01 02:03:37;;;;;;;1.10;1.10;;;;;;;-8.30;68.12;98411.06;4787264;30;20079;-82
2023/03/01 02:06:12;;;;;;;0.90;0.90;;;;;;;-8.27;68.42;98409.16;4787381;30;20051;-80
2023/03/01 02:08:41;;;;;;;1.27;1.20;;;;;;;-8.32;68.29;98396.47;4770934;30;20108;-83
2023/03/01 02:11:09;;;;;;;1.23;1.15;;;;;;;-8.32;68.57;98407.75;4768631;30;20055;-80
2023/03/01 02:13:36;;;;;;;1.08;1.08;;;;;;;-8.32;68.89;98406.94;4769095;30;20055;-82
2023/03/01 02:16:11;;;;;;;1.00;1.00;;;;;;;-8.27;68.77;98399.50;4776253;30;20533;-81
2023/03/01 02:18:40;;;;;;;1.20;1.17;;;;;;;-8.31;68.91;98393.69;4791102;29;20718;-83
2023/03/01 02:21:52;;;;;;;0.93;0.93;;;;;;;-8.30;68.76;98397.16;4788958;29;20054;-83
2023/03/01 02:24:34;;;;;;;1.50;1.40;;;;;;;-8.31;69.10;98398.94;4777417;29;20485;-82
2023/03/01 02:27:02;;;;;;;1.10;1.10;;;;;;;-8.32;69.33;98392.06;4788776;29;20090;-82
2023/03/01 02:29:29;;;;;;;1.10;1.10;;;;;;;-8.31;69.15;98393.69;4805064;29;20150;-82
2023/03/01 02:31:58;;;;;;;1.10;1.10;;;;;;;-8.31;69.40;98405.97;4804842;29;20057;-82
2023/03/01 02:34:25;;;;;;;1.00;1.00;;;;;;;-8.38;69.61;98395.25;4805049;29;20108;-81
2023/03/01 02:37:04;;;;;;;1.10;1.10;;;;;;;-8.38;70.15;98397.88;4788912;29;20055;-82
2023/03/01 02:39:41;;;;;;;1.00;1.00;;;;;;;-8.36;69.98;98414.22;4788781;29;20054;-82
2023/03/01 02:42:15;;;;;;;1.30;1.20;;;;;;;-8.34;70.17;98414.09;4804730;29;20108;-82
2023/03/01 02:44:43;;;;;;;1.10;1.10;;;;;;;-8.25;70.21;98422.91;4788574;29;20157;-82
2023/03/01 02:47:10;;;;;;;1.30;1.20;;;;;;;-8.19;70.18;98411.88;4804568;29;20059;-82
2023/03/01 02:49:37;;;;;;;1.08;1.08;;;;;;;-8.21;69.93;98409.41;4804453;29;20151;-82
2023/03/01 02:52:49;;;;;;;1.50;1.40;;;;;;;-8.19;70.33;98412.72;4788348;29;20471;-81
2023/03/01 02:55:17;;;;;;;1.00;1.00;;;;;;;-8.32;70.41;98415.63;4748417;30;20048;-82
2023/03/01 02:57:46;;;;;;;1.00;1.00;;;;;;;-8.37;70.61;98412.59;4748203;30;20576;-81
2023/03/01 03:00:19;;;;;;;1.20;1.20;;;;;;;-8.41;71.13;98416.47;4733919;30;20452;-82
2023/03/01 03:02:51;;;;;;;1.33;1.23;;;;;;;-8.49;71.13;98418.97;4748417;30;20068;-82
2023/03/01 03:05:24;;;;;;;1.08;1.08;;;;;;;-8.53;71.37;98425.44;4735860;30;20052;-82
2023/03/01 03:07:56;;;;;;;1.30;1.20;;;;;;;-8.59;71.64;98421.56;4730242;30;20068;-80
2023/03/01 03:10:26;;;;;;;0.90;0.90;;;;;;;-8.65;71.92;98409.06;4730792;30;20467;-81
2023/03/01 03:12:59;;;;;;;1.10;1.10;;;;;;;-8.73;72.17;98411.53;4716008;30;20063;-81
2023/03/01 03:15:28;;;;;;;0.90;0.90;;;;;;;-8.75;72.61;98421.31;4729486;30;20528;-81
2023/03/01 03:17:58;;;;;;;1.23;1.20;;;;;;;-8.69;72.62;98414.69;4715996;30;20587;-81
2023/03/01 03:20:27;;;;;;;1.00;1.00;;;;;;;-8.76;72.83;98410.03;4730754;30;20528;-81
2023/03/01 03:22:55;;;;;;;1.00;1.00;;;;;;;-8.79;72.93;98420.72;4729709;30;20536;-80
2023/03/01 03:25:23;;;;;;;1.10;1.10;;;;;;;-8.92;73.27;98407.09;4730282;30;20059;-81
2023/03/01 03:27:56;;;;;;;1.23;1.20;;;;;;;-8.89;73.36;98414.66;4730292;30;20175;-82
2023/03/01 03:30:29;;;;;;;1.30;1.20;;;;;;;-8.90;73.61;98417.44;4782576;30;20059;-81
2023/03/01 03:32:57;;;;;;;1.10;1.10;;;;;;;-8.89;73.70;98419.06;4785560;30;20515;-82
2023/03/01 03:35:29;;;;;;;1.02;1.02;;;;;;;-8.93;73.74;98423.75;4786141;30;20134;-82
2023/03/01 03:38:02;;;;;;;1.30;1.20;;;;;;;-8.99;73.88;98417.28;4770174;30;20401;-82
2023/03/01 03:40:39;;;;;;;1.10;1.10;;;;;;;-8.87;74.45;98423.19;4785756;30;20142;-81
2023/03/01 03:43:12;;;;;;;1.40;1.30;;;;;;;-8.84;73.97;98430.78;4785649;29;20055;-81
2023/03/01 03:45:40;;;;;;;1.00;1.00;;;;;;;-8.93;74.01;98433.41;4785895;30;20632;-84
2023/03/01 03:48:09;;;;;;;1.40;1.30;;;;;;;-9.00;74.31;98433.09;4785425;30;20059;-83
2023/03/01 03:50:38;;;;;;;1.05;1.05;;;;;;;-8.99;74.54;98432.97;4785251;29;20056;-84
2023/03/01 03:53:08;;;;;;;1.40;1.30;;;;;;;-9.03;74.64;98423.75;4787285;30;20151;-83
2023/03/01 03:55:38;;;;;;;1.10;1.10;;;;;;;-9.05;74.83;98419.59;4785417;30;20069;-82
2023/03/01 03:58:08;;;;;;;1.20;1.13;;;;;;;-9.11;74.92;98426.19;4785125;30;20066;-83
2023/03/01 04:00:39;;;;;;;1.08;1.08;;;;;;;-9.06;75.17;98436.22;4769445;30;20063;-83
2023/03/01 04:03:08;;;;;;;1.40;1.30;;;;;;;-9.00;74.96;98433.09;4785711;30;20071;-83
2023/03/01 04:05:36;;;;;;;1.30;1.20;;;;;;;-8.98;75.04;98425.94;4786274;30;20058;-84
2023/03/01 04:08:06;;;;;;;1.10;1.10;;;;;;;-9.03;75.18;98430.75;4785663;30;20055;-84
2023/03/01 04:10:38;;;;;;;1.10;1.10;;;;;;;-9.06;75.20;98434.47;4785299;30;20507;-83
2023/03/01 04:13:06;;;;;;;1.42;1.33;;;;;;;-9.14;75.27;98430.84;4785359;30;20166;-82
2023/03/01 04:15:34;;;;;;;1.15;1.15;;;;;;;-9.18;75.55;98438.97;4785228;30;20059;-83
2023/03/01 04:18:01;;;;;;;1.08;1.08;;;;;;;-9.17;76.13;98438.00;4785600;30;20063;-82
2023/03/01 04:20:34;;;;;;;1.30;1.20;;;;;;;-9.13;75.80;98437.75;4767397;30;20062;-83
2023/03/01 04:23:13;;;;;;;1.50;1.40;;;;;;;-9.02;75.94;98443.69;4767655;30;20055;-82
2023/03/01 04:25:55;;;;;;;1.02;1.02;;;;;;;-9.02;75.67;98442.88;4767077;30;20067;-83
2023/03/01 04:28:25;;;;;;;1.10;1.10;;;;;;;-9.06;75.79;98444.06;4767358;30;20090;-82
2023/03/01 04:30:53;;;;;;;1.30;1.20;;;;;;;-9.10;76.06;98442.72;4767206;30;20174;-81
2023/03/01 04:33:21;;;;;;;1.40;1.30;;;;;;;-9.03;75.93;98454.28;4737469;30;20059;-83
2023/03/01 04:35:50;;;;;;;1.10;1.10;;;;;;;-9.10;76.03;98459.22;4754769;30;20151;-83
2023/03/01 04:38:19;;;;;;;1.25;1.17;;;;;;;-9.13;76.29;98461.28;4756431;30;20055;-84
2023/03/01 04:40:46;;;;;;;1.35;1.25;;;;;;;-9.15;76.36;98456.19;4754395;30;20055;-83
2023/03/01 04:43:14;;;;;;;1.13;1.13;;;;;;;-9.12;76.61;98457.69;4767205;30;20431;-83
2023/03/01 04:45:42;;;;;;;1.15;1.15;;;;;;;-9.04;76.58;98470.91;4767123;30;20111;-83
2023/03/01 04:48:09;;;;;;;1.10;1.10;;;;;;;-9.04;76.39;98463.09;4766916;30;20102;-83
2023/03/01 04:50:36;;;;;;;1.17;1.17;;;;;;;-9.03;76.43;98475.22;4766999;30;20154;-83
2023/03/01 04:53:04;;;;;;;1.42;1.33;;;;;;;-8.96;76.50;98463.25;4767091;30;20512;-82
2023/03/01 04:55:31;;;;;;;1.23;1.17;;;;;;;-8.87;76.19;98465.06;4781065;30;20477;-83
2023/03/01 04:57:58;;;;;;;1.33;1.23;;;;;;;-8.85;76.03;98463.13;4782699;30;20112;-82
2023/03/01 05:00:26;;;;;;;1.40;1.30;;;;;;;-8.80;76.38;98476.63;4767705;30;20059;-83
2023/03/01 05:02:55;;;;;;;1.25;1.20;;;;;;;-8.81;75.96;98467.16;4784802;29;20138;-83
2023/03/01 05:05:25;;;;;;;1.10;1.10;;;;;;;-8.80;75.71;98455.72;4771567;30;20513;-84
2023/03/01 05:07:54;;;;;;;1.30;1.20;;;;;;;-8.67;75.65;98475.56;4787783;30;20058;-83
2023/03/01 05:10:22;;;;;;;1.20;1.20;;;;;;;-8.74;75.62;98470.03;4768866;30;20121;-82
2023/03/01 05:12:49;;;;;;;1.10;1.10;;;;;;;-8.57;75.71;98479.84;4784982;30;20051;-82
2023/03/01 05:15:16;;;;;;;1.35;1.25;;;;;;;-8.49;75.02;98471.31;4787518;30;20060;-82
2023/03/01 05:17:43;;;;;;;1.38;1.27;;;;;;;-8.41;75.32;98475.84;4787525;30;20055;-81
2023/03/01 05:20:11;;;;;;;1.25;1.17;;;;;;;-8.31;74.92;98477.47;4785368;30;20070;-81
2023/03/01 05:22:38;;;;;;;0.95;0.95;;;;;;;-8.21;74.35;98479.28;4784931;30;20051;-84
2023/03/01 05:25:07;;;;;;;1.10;1.10;;;;;;;-8.25;74.42;98483.13;4456217;30;9999937;-83
2023/03/01 05:27:34;;;;;;;0.95;0.95;;;;;;;-8.23;73.93;98486.44;4787377;30;20058;-88
2023/03/01 05:30:13;;;;;;;1.20;1.20;;;;;;;-8.19;73.80;98493.06;4786009;30;20051;-87
2023/03/01 05:32:48;;;;;;;1.10;1.10;;;;;;;-8.17;73.64;98483.28;4767141;30;20507;-88
2023/03/01 05:35:17;;;;;;;1.00;1.00;;;;;;;-8.10;73.19;98489.59;4769357;30;20145;-86
2023/03/01 05:37:47;;;;;;;0.77;0.77;;;;;;;-8.11;73.13;98494.00;4756470;30;20047;-86
2023/03/01 05:40:17;;;;;;;1.10;1.10;;;;;;;-8.08;73.13;98493.75;4780325;29;20118;-86
2023/03/01 05:42:48;;;;;;;1.08;1.08;;;;;;;-8.08;73.34;98500.75;4792601;29;20066;-85
2023/03/01 05:45:17;;;;;;;0.93;0.93;;;;;;;-8.12;73.42;98504.63;4785580;30;20083;-84
2023/03/01 05:47:46;;;;;;;0.95;0.95;;;;;;;-8.23;73.60;98505.56;4786036;30;20418;-85
2023/03/01 05:50:13;;;;;;;1.10;1.10;;;;;;;-8.19;73.49;98506.16;4784489;30;20085;-85
2023/03/01 05:52:40;;;;;;;1.05;1.05;;;;;;;-8.18;73.24;98510.41;4784915;30;20055;-86
2023/03/01 05:55:07;;;;;;;1.10;1.10;;;;;;;-8.18;73.19;98513.03;4784323;30;20055;-85
2023/03/01 05:57:34;;;;;;;1.05;1.05;;;;;;;-8.06;72.95;98507.50;4783735;30;20138;-85
2023/03/01 06:00:02;;;;;;;0.90;0.90;;;;;;;-7.94;72.80;98518.69;4783928;30;20112;-85
2023/03/01 06:02:38;;;;;;;1.00;1.00;;;;;;;-7.79;71.96;98523.50;4752776;30;20105;-86
2023/03/01 06:05:08;;;;;;;1.05;1.05;;;;;;;-7.71;71.65;98523.63;4785635;30;20498;-85
2023/03/01 06:07:36;;;;;;;1.05;1.05;;;;;;;-7.56;71.83;98518.78;4784758;30;20728;-85
2023/03/01 06:10:04;;;;;;;0.90;0.90;;;;;;;-7.49;71.22;98531.16;4783399;30;20583;-83
2023/03/01 06:12:33;;;;;;;0.93;0.93;;;;;;;-7.40;70.54;98521.59;4784515;30;20051;-84
2023/03/01 06:15:00;;;;;;;1.08;1.08;;;;;;;-7.37;70.27;98513.44;4784834;29;20146;-86
2023/03/01 06:17:31;;;;;;;1.10;1.10;;;;;;;-7.30;69.99;98518.97;4782889;30;20527;-89
2023/03/01 06:19:59;;;;;;;0.93;0.93;;;;;;;-7.28;69.62;98520.47;4744428;30;20569;-89
2023/03/01 06:22:34;;;;;;;0.98;0.98;;;;;;;-7.31;69.22;98512.91;4759749;30;20059;-88
2023/03/01 06:25:01;;;;;;;0.90;0.90;;;;;;;-7.21;69.51;98524.19;4789023;30;20059;-87
2023/03/01 06:27:30;;;;;;;1.00;1.00;;;;;;;-7.16;68.88;98536.03;4773061;30;20047;-89
2023/03/01 06:29:58;;;;;;;1.30;1.20;;;;;;;-7.06;69.07;98542.91;4720688;30;20071;-86
2023/03/01 06:32:26;;;;;;;1.00;1.00;;;;;;;-6.98;68.64;98543.00;4737217;30;20064;-89
2023/03/01 06:34:53;;;;;;;1.02;1.02;;;;;;;-6.97;68.51;98536.78;4739440;30;20078;-89
2023/03/01 06:37:21;;;;;;;1.08;1.08;;;;;;;-6.93;68.30;98547.81;4755632;30;20147;-87
2023/03/01 06:39:49;;;;;;;0.98;0.98;;;;;;;-6.94;68.18;98543.53;4750908;30;20059;-88
2023/03/01 06:42:16;;;;;;;0.98;0.98;;;;;;;-6.90;68.16;98541.47;4746397;30;20157;-87
2023/03/01 06:44:44;;;;;;;1.10;1.10;;;;;;;-6.66;67.55;98543.53;4750865;30;20146;-86
2023/03/01 06:47:11;;;;;;;1.10;1.10;;;;;;;-6.64;67.10;98550.28;4734704;30;20092;-85
2023/03/01 06:49:38;;;;;;;0.93;0.93;;;;;;;-6.33;66.71;98549.97;4749271;30;20063;-85
2023/03/01 06:52:05;;;;;;;0.95;0.95;;;;;;;-6.18;66.02;98545.91;4746827;30;20477;-87
2023/03/01 06:54:33;;;;;;;0.90;0.90;;;;;;;-6.21;65.93;98542.72;4727316;30;20124;-89
2023/03/01 06:57:00;;;;;;;1.00;1.00;;;;;;;-6.15;65.42;98550.03;4697999;30;20052;-88
2023/03/01 06:59:27;;;;;;;0.98;0.98;;;;;;;-6.18;65.58;98556.41;4713625;30;20053;-85
2023/03/01 07:01:56;;;;;;;1.20;1.10;;;;;;;-5.93;65.51;98539.00;4742633;30;20056;-85
2023/03/01 07:04:23;;;;;;;0.88;0.88;;;;;;;-5.73;64.90;98558.06;4750410;30;20516;-87
2023/03/01 07:06:54;;;;;;;0.80;0.80;;;;;;;-5.81;64.57;98559.81;4750392;30;20429;-89
2023/03/01 07:09:24;;;;;;;0.80;0.80;;;;;;;-5.69;64.28;98548.91;4750158;30;20060;-90
2023/03/01 07:11:51;;;;;;;0.98;0.98;;;;;;;-5.79;63.86;98539.47;4750534;30;20060;-87
2023/03/01 07:14:19;;;;;;;1.10;1.10;;;;;;;-5.74;64.09;98558.25;4752073;30;20052;-88
2023/03/01 07:16:46;;;;;;;0.90;0.90;;;;;;;-5.69;64.18;98554.16;4749263;30;20112;-85
2023/03/01 07:19:16;;;;;;;0.80;0.80;;;;;;;-5.52;63.86;98544.63;4748820;30;20052;-86
2023/03/01 07:21:43;;;;;;;0.90;0.90;;;;;;;-5.40;63.70;98557.50;4749943;30;20055;-85
2023/03/01 07:24:11;;;;;;;0.95;0.95;;;;;;;-5.42;63.43;98565.53;4747719;30;20483;-84
2023/03/01 07:26:38;;;;;;;0.90;0.90;;;;;;;-5.74;63.20;98559.06;4747914;30;20055;-84
2023/03/01 07:29:06;;;;;;;1.05;1.05;;;;;;;-5.92;63.76;98569.59;4778189;30;20159;-85
2023/03/01 07:31:34;;;;;;;1.00;1.00;;;;;;;-5.85;63.99;98569.78;4770309;30;20137;-83
2023/03/01 07:34:01;;;;;;;0.93;0.93;;;;;;;-5.66;64.02;98569.63;4786423;30;20055;-85
2023/03/01 07:36:28;;;;;;;0.80;0.80;;;;;;;-5.42;63.98;98572.59;4789449;30;20109;-89
2023/03/01 07:38:56;;;;;;;0.88;0.88;;;;;;;-5.15;62.76;98569.84;4787123;30;20146;-88
2023/03/01 07:41:23;;;;;;;0.90;0.90;;;;;;;-5.18;62.33;98572.78;4769058;30;20051;-86
2023/03/01 07:43:50;;;;;;;1.00;1.00;;;;;;;-5.05;62.41;98575.81;4784516;29;20082;-85
2023/03/01 07:46:18;;;;;;;1.00;1.00;;;;;;;-4.95;62.31;98580.97;4753905;30;20426;-84
2023/03/01 07:48:46;;;;;;;1.00;1.00;;;;;;;-4.77;61.71;98580.91;4785739;30;20066;-85
2023/03/01 07:51:13;;;;;;;1.00;1.00;;;;;;;-4.51;60.94;98580.84;4785036;30;20061;-81
2023/03/01 07:53:40;;;;;;;0.98;0.98;;;;;;;-4.09;60.83;98595.81;4784817;30;20047;-84
2023/03/01 07:56:11;;;;;;;1.30;1.20;;;;;;;-3.80;59.95;98587.47;4784949;30;20062;-85
2023/03/01 07:58:41;;;;;;;1.00;1.00;;;;;;;-3.99;59.16;98579.84;4783497;30;20066;-84
2023/03/01 08:01:11;;;;;;;1.15;1.13;;;;;;;-3.84;58.73;98574.78;4785728;30;20061;-85
2023/03/01 08:03:38;;;;;;;1.00;1.00;;;;;;;-3.82;58.44;98592.09;4769046;30;20051;-85
2023/03/01 08:06:07;;;;;;;1.38;1.27;;;;;;;-3.29;58.11;98584.69;4762797;30;20062;-85
2023/03/01 08:08:36;;;;;;;0.98;0.98;;;;;;;-2.72;57.01;98566.06;4785630;30;20062;-86
2023/03/01 08:11:04;;;;;;;1.25;1.20;;;;;;;-2.68;55.39;98585.88;4785787;30;20051;-85
2023/03/01 08:13:31;;;;;;;1.00;1.00;;;;;;;-2.45;55.39;98582.50;4785645;30;20066;-87
2023/03/01 08:16:06;;;;;;;0.90;0.90;;;;;;;-2.13;54.73;98585.97;4785489;30;20055;-85
2023/03/01 08:18:33;;;;;;;1.00;1.00;;;;;;;-1.73;54.06;98581.44;4785451;30;20105;-83
2023/03/01 08:21:03;;;;;;;1.15;1.15;;;;;;;-1.71;54.34;98593.50;4783752;30;20063;-83
2023/03/01 08:23:30;;;;;;;1.10;1.10;;;;;;;-1.11;53.64;98599.81;4768809;30;20154;-84
2023/03/01 08:26:23;;;;;;;1.10;1.10;;;;;;;-0.45;51.60;98586.72;4784796;30;20396;-82
2023/03/01 08:28:50;;;;;;;1.40;1.30;;;;;;;-0.84;50.72;98584.31;4711875;30;20379;-85
2023/03/01 08:31:24;;;;;;;1.02;1.02;;;;;;;-1.02;50.07;98582.81;4711682;30;20057;-83
2023/03/01 08:33:57;;;;;;;1.30;1.20;;;;;;;-1.26;50.41;98588.38;4706707;30;20065;-82
2023/03/01 08:36:29;;;;;;;1.35;1.25;;;;;;;-1.00;50.03;98588.78;4712053;30;20053;-81
2023/03/01 08:38:58;;;;;;;0.93;0.93;;;;;;;-0.65;49.72;98591.75;4700670;30;20565;-84
2023/03/01 08:41:25;;;;;;;1.10;1.10;;;;;;;-0.32;49.27;98584.22;4711566;30;20408;-82
2023/03/01 08:43:52;;;;;;;1.30;1.20;;;;;;;0.61;48.60;98590.53;4704639;30;20062;-86
2023/03/01 08:46:19;;;;;;;1.20;1.20;;;;;;;-0.07;47.96;98591.88;4694961;30;20588;-85
2023/03/01 08:48:46;;;;;;;1.35;1.25;;;;;;;-0.05;47.92;98597.78;4715403;30;20111;-85
2023/03/01 08:51:16;;;;;;;1.30;1.20;;;;;;;-0.01;47.33;98583.97;4704183;30;20127;-85
2023/03/01 08:53:48;;;;;;;1.40;1.30;;;;;;;0.67;47.25;98588.94;4692757;30;20107;-85
2023/03/01 08:56:16;;;;;;;1.33;1.23;;;;;;;1.77;46.41;98583.94;4701839;30;20070;-87
2023/03/01 08:58:45;;;;;;;1.13;1.13;;;;;;;1.67;45.82;98584.28;4712535;30;20152;-86
2023/03/01 09:01:16;;;;;;;1.23;1.17;;;;;;;1.87;45.36;98587.03;4714133;30;20533;-86
2023/03/01 09:03:44;;;;;;;1.42;1.33;;;;;;;1.91;44.26;98577.66;4710211;30;20529;-86
2023/03/01 09:06:12;;;;;;;1.45;1.35;;;;;;;1.77;44.32;98589.25;4759549;30;20520;-84
2023/03/01 09:08:44;;;;;;;1.35;1.25;;;;;;;2.06;43.67;98594.28;4771240;30;20051;-84
2023/03/01 09:11:13;;;;;;;1.50;1.40;;;;;;;1.75;44.40;98589.47;4788341;30;20065;-83
2023/03/01 09:13:40;;;;;;;1.40;1.30;;;;;;;2.04;44.44;98591.00;4786803;30;20085;-85
2023/03/01 09:16:11;;;;;;;1.40;1.30;;;;;;;2.66;43.29;98594.44;4772076;30;20675;-85
2023/03/01 09:18:38;;;;;;;1.48;1.38;;;;;;;2.25;43.40;98592.69;4789265;30;20059;-86
2023/03/01 09:21:07;;;;;;;1.40;1.30;;;;;;;2.56;43.41;98589.50;4788021;30;20434;-87
2023/03/01 09:23:38;;;;;;;1.40;1.30;;;;;;;3.40;42.23;98590.69;4787886;30;20142;-85
2023/03/01 09:26:08;;;;;;;1.40;1.30;;;;;;;3.50;40.22;98584.13;4772172;30;20507;-85
2023/03/01 09:28:36;;;;;;;1.10;1.10;;;;;;;2.13;42.94;98592.47;4788447;30;20062;-86
2023/03/01 09:31:04;;;;;;;1.60;1.50;;;;;;;2.69;42.98;98593.22;4786790;30;20055;-86
2023/03/01 09:33:32;;;;;;;1.05;1.05;;;;;;;2.46;43.21;98601.56;4763170;30;20059;-88
2023/03/01 09:36:01;;;;;;;1.00;1.00;;;;;;;0.77;45.82;98600.06;4755723;30;20072;-87
2023/03/01 09:38:29;;;;;;;0.90;0.90;;;;;;;0.69;45.75;98599.38;4788657;30;20422;-86
2023/03/01 09:40:56;;;;;;;1.27;1.20;;;;;;;-0.45;47.13;98610.56;4787756;30;20061;-84
2023/03/01 09:43:40;;;;;;;1.58;1.48;;;;;;;1.29;45.07;98604.16;4772571;30;20061;-87
2023/03/01 09:46:13;;;;;;;1.60;1.50;;;;;;;1.21;44.30;98590.97;4772051;30;20066;-83
2023/03/01 09:48:51;;;;;;;1.50;1.40;;;;;;;2.48;43.01;98600.34;4786881;29;21058;-87
2023/03/01 09:51:29;;;;;;;1.50;1.40;;;;;;;3.63;41.11;98608.91;4785017;30;20059;-87
2023/03/01 09:53:58;;;;;;;1.50;1.40;;;;;;;3.93;39.83;98583.56;4787755;30;20052;-85
2023/03/01 09:56:46;;;;;;;1.50;1.40;;;;;;;3.62;39.33;98582.44;4788857;30;20874;-86
2023/03/01 09:59:13;;;;;;;1.40;1.30;;;;;;;2.95;40.31;98608.38;4771097;30;20072;-84
2023/03/01 10:01:57;;;;;;;1.35;1.25;;;;;;;2.73;40.97;98600.56;4786677;30;20059;-85
2023/03/01 10:04:28;;;;;;;0.90;0.90;;;;;;;1.37;43.38;98616.47;4781432;30;20058;-83
2023/03/01 10:07:11;;;;;;;0.90;0.90;;;;;;;-0.28;46.73;98616.47;4770738;30;20047;-83
2023/03/01 10:09:43;;;;;;;1.10;1.10;;;;;;;-0.46;47.78;98620.34;4790216;30;20527;-85
2023/03/01 10:12:14;;;;;;;1.00;1.00;;;;;;;-0.75;48.19;98620.34;4756788;30;20415;-84
2023/03/01 10:14:51;;;;;;;1.00;1.00;;;;;;;-0.90;48.41;98626.44;4770990;30;20055;-84
2023/03/01 10:17:26;;;;;;;1.08;1.08;;;;;;;-1.53;50.29;98635.56;4786623;30;20087;-84
2023/03/01 10:19:53;;;;;;;1.38;1.27;;;;;;;-1.10;50.17;98635.88;4784849;30;20063;-83
2023/03/01 10:22:28;;;;;;;1.05;1.05;;;;;;;-1.33;50.60;98644.66;4769869;30;20056;-86
2023/03/01 10:24:58;;;;;;;1.10;1.10;;;;;;;-1.92;51.40;98625.88;4801986;30;20051;-85
2023/03/01 10:27:31;;;;;;;1.30;1.20;;;;;;;-2.28;52.43;98639.59;4804491;30;20047;-85
2023/03/01 10:30:01;;;;;;;1.10;1.10;;;;;;;-2.10;52.33;98641.16;4786086;30;20076;-86
2023/03/01 10:32:29;;;;;;;1.63;1.52;;;;;;;-0.55;49.66;98615.31;4903309;24;20100;-88
2023/03/01 10:34:59;;;;;;;1.10;1.10;;;;;;;-0.76;49.51;98629.28;4740085;30;20051;-87
2023/03/01 10:37:27;;;;;;;1.30;1.20;;;;;;;-0.83;49.46;98628.38;4770525;30;20505;-87
2023/03/01 10:39:56;;;;;;;1.10;1.10;;;;;;;-1.28;49.46;98635.38;4772640;30;20657;-86
2023/03/01 10:42:31;;;;;;;1.00;1.00;;;;;;;-1.86;51.16;98633.09;4780382;29;20055;-86
2023/03/01 10:45:16;;;;;;;1.00;1.00;;;;;;;-2.08;51.98;98660.31;4754644;30;20138;-88
2023/03/01 10:47:43;;;;;;;1.30;1.20;;;;;;;-1.83;51.60;98645.97;4789587;30;20499;-87
2023/03/01 10:50:22;;;;;;;1.40;1.30;;;;;;;-1.15;50.59;98619.72;4770615;30;20546;-86
2023/03/01 10:53:00;;;;;;;1.10;1.10;;;;;;;-0.71;48.49;98634.84;4777545;30;20105;-87
2023/03/01 10:55:36;;;;;;;1.10;1.10;;;;;;;-0.79;48.67;98642.88;4739145;30;20090;-86
2023/03/01 10:58:22;;;;;;;1.10;1.10;;;;;;;-0.52;48.56;98625.56;4755741;30;20508;-87
2023/03/01 11:00:57;;;;;;;1.10;1.10;;;;;;;-1.03;49.83;98636.00;4766792;30;20055;-87
2023/03/01 11:03:29;;;;;;;1.50;1.40;;;;;;;-0.25;49.07;98640.00;4743665;30;20055;-86
2023/03/01 11:06:11;;;;;;;1.08;1.08;;;;;;;-0.60;48.87;98644.22;4762339;30;20051;-86
2023/03/01 11:08:38;;;;;;;1.00;1.00;;;;;;;-1.39;49.48;98658.63;4775759;30;20043;-86
2023/03/01 11:11:17;;;;;;;1.00;1.00;;;;;;;-1.97;51.01;98647.56;4786965;30;20087;-85
2023/03/01 11:14:13;;;;;;;1.05;1.05;;;;;;;-2.05;51.88;98650.25;4787875;30;20463;-86
2023/03/01 11:17:12;;;;;;;1.45;1.35;;;;;;;-0.80;50.17;98643.91;4780042;29;20068;-87
2023/03/01 11:19:39;;;;;;;1.90;1.80;;;;;;;1.93;44.22;98629.66;4770390;30;20055;-87
2023/03/01 11:22:12;;;;;;;1.63;1.52;;;;;;;3.38;41.02;98634.63;4754107;30;20055;-86
2023/03/01 11:24:54;;;;;;;1.80;1.70;;;;;;;3.91;39.12;98618.47;4774423;30;20059;-86
2023/03/01 11:27:38;;;;;;;1.70;1.60;;;;;;;4.87;37.29;98625.56;4756124;30;20094;-86
2023/03/01 11:30:33;;;;;;;1.70;1.60;;;;;;;5.12;36.49;98617.56;4768997;30;20083;-87
2023/03/01 11:33:46;;;;;;;1.70;1.60;;;;;;;5.67;35.75;98630.22;4775290;30;20082;-85
2023/03/01 11:36:24;;;;;;;0.90;0.90;;;;;;;4.20;37.33;98627.81;4754479;30;20154;-85
2023/03/01 11:38:53;;;;;;;1.60;1.50;;;;;;;4.98;36.46;98640.91;4752320;30;20059;-87
2023/03/01 11:41:30;;;;;;;1.80;1.70;;;;;;;5.49;35.00;98636.38;4785821;30;20062;-85
2023/03/01 11:44:00;;;;;;;1.60;1.50;;;;;;;6.07;35.22;98627.13;4763728;30;20083;-87
2023/03/01 11:46:46;;;;;;;1.45;1.35;;;;;;;7.07;33.21;98631.94;4775875;30;20056;-87
2023/03/01 11:49:16;;;;;;;0.90;0.90;;;;;;;5.12;35.77;98636.28;4774235;30;20076;-86
2023/03/01 11:52:02;;;;;;;1.70;1.60;;;;;;;5.25;35.75;98635.38;4768751;30;20147;-87